createdAt,value
2018-03-04T00:00:25.071Z,0.10
2018-03-04T00:02:52.601Z,0.10
2018-03-04T00:05:20.909Z,0.10
2018-03-04T00:07:48.431Z,0.10
2018-03-04T00:10:16.976Z,-0.10
2018-03-04T00:12:44.612Z,-0.10
2018-03-04T00:15:12.141Z,-0.10
2018-03-04T00:17:40.616Z,0.00
2018-03-04T00:20:08.373Z,0.00
2018-03-04T00:22:41.650Z,0.10
2018-03-04T00:25:09.911Z,0.10
2018-03-04T00:27:37.784Z,0.20
2018-03-04T00:30:06.221Z,0.40
2018-03-04T00:32:34.410Z,0.30
2018-03-04T00:35:02.210Z,0.40
2018-03-04T00:37:29.799Z,0.50
2018-03-04T00:39:58.751Z,0.50
2018-03-04T00:42:26.285Z,0.40
2018-03-04T00:44:53.832Z,0.50
2018-03-04T00:47:21.359Z,0.50
2018-03-04T00:49:48.892Z,0.50
2018-03-04T00:52:16.414Z,0.60
2018-03-04T00:54:44.032Z,0.60
2018-03-04T00:57:11.695Z,0.60
2018-03-04T00:59:40.071Z,0.70
2018-03-04T01:02:08.721Z,0.70
2018-03-04T01:04:36.428Z,0.70
2018-03-04T01:07:05.831Z,0.80
2018-03-04T01:09:34.701Z,0.70
2018-03-04T01:12:03.152Z,0.70
2018-03-04T01:14:31.122Z,0.70
2018-03-04T01:16:59.015Z,0.80
2018-03-04T01:19:26.529Z,0.80
2018-03-04T01:21:54.056Z,0.80
2018-03-04T01:24:21.588Z,0.80
2018-03-04T01:26:49.138Z,0.90
2018-03-04T01:29:16.672Z,0.90
2018-03-04T01:31:44.308Z,1.00
2018-03-04T01:34:12.731Z,0.90
2018-03-04T01:36:40.506Z,0.90
2018-03-04T01:39:08.154Z,1.00
2018-03-04T01:41:36.330Z,1.00
2018-03-04T01:44:04.608Z,0.90
2018-03-04T01:46:32.381Z,1.00
2018-03-04T01:48:59.945Z,1.00
2018-03-04T01:51:39.677Z,1.00
2018-03-04T01:54:07.486Z,1.00
2018-03-04T01:56:35.269Z,1.10
2018-03-04T01:59:04.799Z,1.10
2018-03-04T02:01:33.644Z,1.10
2018-03-04T02:04:01.187Z,1.00
2018-03-04T02:06:28.757Z,1.10
2018-03-04T02:08:56.281Z,1.10
2018-03-04T02:11:23.827Z,1.10
2018-03-04T02:13:51.355Z,1.10
2018-03-04T02:16:18.900Z,1.00
2018-03-04T02:18:46.421Z,1.10
2018-03-04T02:21:14.130Z,1.10
2018-03-04T02:23:43.478Z,1.10
2018-03-04T02:26:11.086Z,1.10
2018-03-04T02:28:38.800Z,1.10
2018-03-04T02:31:06.894Z,1.10
2018-03-04T02:33:35.594Z,1.10
2018-03-04T02:36:03.748Z,1.10
2018-03-04T02:38:31.414Z,1.10
2018-03-04T02:40:59.006Z,1.00
2018-03-04T02:43:26.534Z,1.00
2018-03-04T02:45:54.082Z,1.00
2018-03-04T02:48:21.627Z,1.00
2018-03-04T02:50:49.150Z,1.00
2018-03-04T02:53:16.701Z,1.00
2018-03-04T02:55:44.465Z,1.00
2018-03-04T02:58:13.127Z,1.00
2018-03-04T03:00:40.861Z,1.00
2018-03-04T03:03:08.544Z,1.00
2018-03-04T03:05:36.940Z,1.00
2018-03-04T03:08:05.609Z,1.00
2018-03-04T03:10:34.194Z,1.00
2018-03-04T03:13:03.805Z,0.90
2018-03-04T03:15:32.488Z,1.00
2018-03-04T03:18:00.957Z,0.70
2018-03-04T03:20:29.830Z,0.60
2018-03-04T03:22:58.153Z,0.50
2018-03-04T03:25:25.671Z,0.50
2018-03-04T03:27:53.965Z,0.20
2018-03-04T03:30:21.516Z,0.10
2018-03-04T03:32:49.099Z,-0.10
2018-03-04T03:35:16.672Z,-0.20
2018-03-04T03:37:44.233Z,-0.10
2018-03-04T03:40:12.008Z,0.00
2018-03-04T03:42:41.294Z,0.30
2018-03-04T03:45:09.151Z,0.30
2018-03-04T03:47:38.447Z,0.50
2018-03-04T03:50:06.830Z,0.50
2018-03-04T03:52:34.912Z,0.60
2018-03-04T03:55:03.115Z,0.70
2018-03-04T03:57:31.814Z,0.90
2018-03-04T04:00:00.349Z,0.90
2018-03-04T04:02:27.885Z,0.90
2018-03-04T04:04:55.409Z,0.90
2018-03-04T04:07:22.960Z,0.90
2018-03-04T04:09:50.486Z,0.80
2018-03-04T04:12:18.016Z,0.80
2018-03-04T04:14:46.312Z,0.70
2018-03-04T04:17:14.083Z,0.70
2018-03-04T04:19:42.157Z,0.60
2018-03-04T04:22:10.026Z,0.50
2018-03-04T04:24:38.689Z,0.30
2018-03-04T04:27:06.884Z,0.20
2018-03-04T04:29:35.029Z,0.10
2018-03-04T04:32:03.305Z,-0.10
2018-03-04T04:34:30.882Z,-0.10
2018-03-04T04:37:00.280Z,-0.30
2018-03-04T04:39:27.859Z,-0.30
2018-03-04T04:41:55.394Z,-0.40
2018-03-04T04:44:23.803Z,-0.60
2018-03-04T04:46:51.334Z,-0.70
2018-03-04T04:49:18.872Z,-0.80
2018-03-04T04:51:47.184Z,-1.10
2018-03-04T04:54:14.853Z,-1.10
2018-03-04T04:56:42.561Z,-1.10
2018-03-04T04:59:10.284Z,-1.30
2018-03-04T05:01:39.074Z,-1.40
2018-03-04T05:04:07.077Z,-1.40
2018-03-04T05:06:35.017Z,-1.40
2018-03-04T05:09:04.372Z,-1.40
2018-03-04T05:11:32.386Z,-1.50
2018-03-04T05:14:00.737Z,-1.50
2018-03-04T05:16:29.066Z,-1.50
2018-03-04T05:18:56.602Z,-1.50
2018-03-04T05:21:24.536Z,-1.40
2018-03-04T05:23:52.848Z,-1.40
2018-03-04T05:26:20.369Z,-1.50
2018-03-04T05:28:48.786Z,-1.50
2018-03-04T05:31:16.315Z,-1.50
2018-03-04T05:33:45.077Z,-1.50
2018-03-04T05:36:12.800Z,-1.50
2018-03-04T05:38:40.564Z,-1.60
2018-03-04T05:41:08.366Z,-1.70
2018-03-04T05:43:35.968Z,-1.90
2018-03-04T05:46:05.136Z,-1.90
2018-03-04T05:48:33.802Z,-2.00
2018-03-04T05:51:01.582Z,-2.00
2018-03-04T05:53:29.915Z,-1.90
2018-03-04T05:55:57.464Z,-1.90
2018-03-04T05:58:25.016Z,-1.80
2018-03-04T06:00:52.566Z,-1.50
2018-03-04T06:03:20.864Z,-1.50
2018-03-04T06:05:49.401Z,-1.50
2018-03-04T06:08:16.953Z,-1.60
2018-03-04T06:10:44.542Z,-1.70
2018-03-04T06:13:12.951Z,-1.80
2018-03-04T06:15:40.552Z,-1.90
2018-03-04T06:18:09.014Z,-1.80
2018-03-04T06:20:37.595Z,-1.80
2018-03-04T06:23:05.348Z,-1.80
2018-03-04T06:25:33.214Z,-1.80
2018-03-04T06:28:00.774Z,-1.70
2018-03-04T06:30:29.052Z,-1.70
2018-03-04T06:32:56.641Z,-1.70
2018-03-04T06:35:25.301Z,-1.70
2018-03-04T06:37:52.860Z,-1.70
2018-03-04T06:40:20.384Z,-1.60
2018-03-04T06:42:48.298Z,-1.60
2018-03-04T06:45:15.825Z,-1.50
2018-03-04T06:47:44.142Z,-1.20
2018-03-04T06:50:12.401Z,-1.30
2018-03-04T06:52:40.293Z,-1.00
2018-03-04T06:55:07.931Z,-0.80
2018-03-04T06:57:35.696Z,-0.70
2018-03-04T07:00:04.198Z,-0.60
2018-03-04T07:02:32.722Z,-0.40
2018-03-04T07:05:00.308Z,-0.40
2018-03-04T07:07:28.086Z,-0.50
2018-03-04T07:09:55.618Z,-0.40
2018-03-04T07:12:23.222Z,-0.40
2018-03-04T07:14:50.744Z,-0.40
2018-03-04T07:17:18.312Z,-0.40
2018-03-04T07:19:46.095Z,-0.20
2018-03-04T07:22:14.214Z,0.10
2018-03-04T07:24:42.906Z,1.00
2018-03-04T07:27:11.593Z,1.20
2018-03-04T07:29:39.618Z,1.20
2018-03-04T07:32:07.786Z,1.30
2018-03-04T07:34:36.366Z,1.40
2018-03-04T07:37:04.731Z,1.50
2018-03-04T07:39:32.920Z,1.60
2018-03-04T07:42:00.483Z,1.50
2018-03-04T07:44:28.102Z,1.50
2018-03-04T07:46:55.624Z,1.60
2018-03-04T07:49:23.210Z,1.60
2018-03-04T07:51:54.012Z,1.70
2018-03-04T07:54:21.542Z,1.90
2018-03-04T07:56:49.105Z,2.10
2018-03-04T07:59:16.967Z,2.60
2018-03-04T08:01:44.730Z,2.90
2018-03-04T08:04:12.433Z,2.70
2018-03-04T08:06:40.988Z,5.60
2018-03-04T08:09:08.867Z,5.60
2018-03-04T08:11:36.529Z,6.20
2018-03-04T08:14:04.532Z,5.80
2018-03-04T08:16:32.547Z,4.50
2018-03-04T08:19:00.228Z,3.50
2018-03-04T08:21:27.823Z,3.10
2018-03-04T08:23:55.499Z,3.00
2018-03-04T08:26:35.757Z,3.30
2018-03-04T08:29:04.068Z,3.40
2018-03-04T08:31:31.600Z,3.40
2018-03-04T08:33:59.898Z,3.50
2018-03-04T08:36:28.051Z,3.50
2018-03-04T08:38:56.662Z,3.60
2018-03-04T08:41:24.545Z,3.60
2018-03-04T08:43:52.297Z,3.70
2018-03-04T08:46:20.077Z,3.80
2018-03-04T08:48:50.142Z,3.90
2018-03-04T08:51:18.685Z,4.20
2018-03-04T08:53:46.376Z,4.70
2018-03-04T08:56:14.336Z,5.00
2018-03-04T08:58:42.953Z,5.40
2018-03-04T09:01:11.271Z,5.40
2018-03-04T09:03:39.028Z,5.10
2018-03-04T09:06:06.631Z,4.90
2018-03-04T09:08:34.240Z,4.90
2018-03-04T09:11:01.847Z,5.00
2018-03-04T09:13:29.413Z,5.00
2018-03-04T09:15:58.470Z,5.40
2018-03-04T09:18:26.313Z,5.40
2018-03-04T09:20:54.017Z,5.70
2018-03-04T09:23:23.323Z,6.30
2018-03-04T09:25:51.448Z,6.20
2018-03-04T09:28:19.612Z,7.30
2018-03-04T09:30:50.098Z,8.80
2018-03-04T09:33:18.857Z,8.50
2018-03-04T09:35:46.377Z,8.40
2018-03-04T09:38:14.188Z,7.40
2018-03-04T09:40:41.821Z,7.30
2018-03-04T09:43:09.458Z,8.80
2018-03-04T09:45:37.783Z,10.00
2018-03-04T09:48:06.269Z,9.90
2018-03-04T09:50:33.936Z,9.90
2018-03-04T09:53:01.612Z,9.50
2018-03-04T09:55:29.237Z,9.60
2018-03-04T09:57:57.228Z,9.80
2018-03-04T10:00:24.895Z,9.40
2018-03-04T10:02:52.620Z,9.80
2018-03-04T10:05:20.627Z,10.70
2018-03-04T10:07:48.697Z,10.60
2018-03-04T10:10:16.768Z,11.50
2018-03-04T10:12:45.228Z,10.20
2018-03-04T10:15:12.814Z,10.10
2018-03-04T10:17:40.514Z,10.20
2018-03-04T10:20:08.056Z,10.10
2018-03-04T10:22:35.602Z,10.20
2018-03-04T10:25:03.137Z,10.20
2018-03-04T10:27:30.703Z,10.20
2018-03-04T10:29:58.337Z,10.60
2018-03-04T10:32:26.866Z,10.80
2018-03-04T10:34:56.061Z,11.20
2018-03-04T10:37:23.837Z,11.20
2018-03-04T10:39:52.467Z,10.70
2018-03-04T10:42:20.644Z,10.50
2018-03-04T10:44:48.336Z,10.40
2018-03-04T10:47:16.824Z,9.70
2018-03-04T10:49:44.373Z,9.60
2018-03-04T10:52:11.905Z,9.80
2018-03-04T10:54:40.188Z,9.50
2018-03-04T10:57:08.474Z,9.50
2018-03-04T10:59:36.054Z,9.50
2018-03-04T11:02:04.485Z,9.40
2018-03-04T11:04:32.024Z,9.30
2018-03-04T11:06:59.655Z,9.60
2018-03-04T11:09:27.733Z,9.50
2018-03-04T11:11:55.398Z,9.50
2018-03-04T11:14:23.482Z,9.60
2018-03-04T11:16:51.469Z,9.50
2018-03-04T11:19:19.611Z,9.40
2018-03-04T11:21:48.911Z,9.60
2018-03-04T11:24:16.896Z,9.60
2018-03-04T11:26:44.421Z,9.40
2018-03-04T11:29:11.968Z,9.60
2018-03-04T11:31:40.256Z,9.80
2018-03-04T11:34:07.794Z,9.80
2018-03-04T11:36:36.116Z,10.10
2018-03-04T11:39:03.646Z,10.10
2018-03-04T11:41:31.936Z,10.30
2018-03-04T11:43:59.556Z,10.30
2018-03-04T11:46:27.128Z,10.30
2018-03-04T11:48:55.556Z,10.10
2018-03-04T11:51:23.178Z,10.10
2018-03-04T11:53:52.084Z,10.10
2018-03-04T11:56:19.974Z,10.10
2018-03-04T11:58:49.079Z,10.40
2018-03-04T12:01:17.758Z,10.60
2018-03-04T12:03:45.373Z,10.60
2018-03-04T12:06:13.689Z,10.50
2018-03-04T12:08:41.236Z,10.50
2018-03-04T12:11:08.805Z,10.40
2018-03-04T12:13:36.359Z,10.30
2018-03-04T12:16:03.882Z,10.50
2018-03-04T12:18:31.409Z,10.70
2018-03-04T12:20:59.054Z,11.00
2018-03-04T12:23:26.728Z,10.70
2018-03-04T12:25:55.245Z,10.50
2018-03-04T12:28:22.913Z,10.50
2018-03-04T12:30:51.553Z,11.00
2018-03-04T12:33:19.930Z,10.90
2018-03-04T12:35:49.138Z,10.90
2018-03-04T12:38:18.732Z,11.50
2018-03-04T12:40:46.409Z,11.50
2018-03-04T12:43:13.991Z,11.40
2018-03-04T12:45:41.571Z,11.00
2018-03-04T12:48:09.101Z,11.00
2018-03-04T12:50:36.662Z,11.20
2018-03-04T12:53:04.198Z,11.00
2018-03-04T12:55:31.773Z,11.10
2018-03-04T12:57:59.674Z,11.30
2018-03-04T13:00:28.312Z,11.10
2018-03-04T13:02:55.948Z,11.10
2018-03-04T13:05:23.747Z,11.00
2018-03-04T13:07:52.870Z,11.20
2018-03-04T13:10:20.989Z,11.10
2018-03-04T13:12:48.690Z,11.00
2018-03-04T13:15:16.747Z,11.00
2018-03-04T13:17:45.137Z,11.00
2018-03-04T13:20:13.002Z,10.90
2018-03-04T13:22:40.533Z,11.20
2018-03-04T13:25:08.090Z,11.30
2018-03-04T13:27:35.641Z,11.60
2018-03-04T13:30:03.177Z,11.60
2018-03-04T13:32:30.708Z,11.40
2018-03-04T13:34:58.615Z,11.50
2018-03-04T13:37:27.030Z,11.60
2018-03-04T13:39:54.906Z,11.60
2018-03-04T13:42:22.846Z,11.60
2018-03-04T13:44:52.278Z,11.60
2018-03-04T13:47:19.919Z,11.50
2018-03-04T13:49:47.616Z,11.40
2018-03-04T13:52:15.153Z,11.50
2018-03-04T13:54:42.688Z,11.20
2018-03-04T13:57:11.010Z,11.20
2018-03-04T13:59:38.555Z,11.10
2018-03-04T14:04:57.393Z,11.20
2018-03-04T14:07:25.037Z,11.10
2018-03-04T14:09:53.419Z,11.20
2018-03-04T14:12:21.424Z,11.20
2018-03-04T14:14:49.329Z,11.40
2018-03-04T14:17:17.061Z,11.20
2018-03-04T14:19:44.638Z,11.30
2018-03-04T14:22:12.166Z,11.10
2018-03-04T14:24:40.472Z,10.80
2018-03-04T14:27:08.017Z,10.80
2018-03-04T14:29:35.548Z,10.70
2018-03-04T14:32:03.854Z,10.90
2018-03-04T14:34:31.844Z,10.90
2018-03-04T14:36:59.419Z,11.10
2018-03-04T14:39:26.961Z,11.00
2018-03-04T14:41:54.540Z,10.90
2018-03-04T14:44:22.944Z,10.90
2018-03-04T14:46:51.259Z,10.90
2018-03-04T14:49:20.399Z,10.80
2018-03-04T14:51:49.281Z,10.60
2018-03-04T15:05:53.994Z,10.50
2018-03-04T15:08:21.529Z,10.50
2018-03-04T15:10:49.137Z,10.40
2018-03-04T15:13:16.690Z,10.50
2018-03-04T15:15:44.541Z,10.50
2018-03-04T15:18:12.475Z,10.30
2018-03-04T15:20:40.957Z,10.20
2018-03-04T15:23:08.522Z,10.20
2018-03-04T15:25:36.201Z,10.20
2018-03-04T15:28:06.321Z,10.10
2018-03-04T15:30:34.099Z,10.10
2018-03-04T15:33:03.286Z,10.00
2018-03-04T15:35:31.477Z,10.00
2018-03-04T15:38:00.518Z,9.90
2018-03-04T15:40:28.287Z,9.90
2018-03-04T15:42:55.825Z,9.80
2018-03-04T15:45:23.349Z,9.60
2018-03-04T15:47:50.908Z,9.50
2018-03-04T15:50:18.460Z,9.50
2018-03-04T15:52:46.046Z,9.40
2018-03-04T15:55:13.830Z,9.40
2018-03-04T15:57:42.365Z,9.30
2018-03-04T16:00:11.031Z,9.20
2018-03-04T16:02:40.025Z,9.10
2018-03-04T16:05:08.362Z,9.10
2018-03-04T16:07:36.773Z,9.00
2018-03-04T16:10:04.979Z,8.90
2018-03-04T16:12:32.542Z,8.90
2018-03-04T16:15:00.073Z,8.90
2018-03-04T16:17:28.385Z,8.60
2018-03-04T16:19:55.909Z,8.60
2018-03-04T16:22:24.286Z,8.30
2018-03-04T16:24:53.054Z,8.20
2018-03-04T16:27:20.588Z,8.20
2018-03-04T16:29:49.280Z,8.20
2018-03-04T16:32:16.898Z,8.20
2018-03-04T16:34:44.576Z,8.20
2018-03-04T16:37:12.552Z,8.20
2018-03-04T16:39:40.597Z,8.20
2018-03-04T16:42:08.993Z,8.10
2018-03-04T16:44:36.860Z,8.10
2018-03-04T16:47:05.037Z,8.20
2018-03-04T16:49:32.674Z,8.20
2018-03-04T16:52:00.197Z,8.30
2018-03-04T16:54:28.591Z,8.10
2018-03-04T16:56:56.113Z,8.10
2018-03-04T16:59:23.644Z,8.10
2018-03-04T17:01:51.217Z,8.10
2018-03-04T17:04:18.978Z,8.10
2018-03-04T17:06:46.767Z,8.10
2018-03-04T17:09:14.511Z,8.00
2018-03-04T17:11:42.142Z,8.00
2018-03-04T17:14:09.855Z,7.90
2018-03-04T17:16:37.689Z,7.90
2018-03-04T17:19:06.725Z,7.80
2018-03-04T17:21:35.801Z,7.80
2018-03-04T17:24:03.386Z,7.70
2018-03-04T17:26:31.002Z,7.70
2018-03-04T17:28:58.548Z,7.70
2018-03-04T17:31:26.859Z,7.60
2018-03-04T17:33:54.406Z,7.60
2018-03-04T17:36:21.934Z,7.60
2018-03-04T17:38:50.869Z,7.50
2018-03-04T17:41:18.404Z,7.50
2018-03-04T17:43:45.950Z,7.50
2018-03-04T17:46:14.626Z,7.50
2018-03-04T17:48:43.366Z,7.50
2018-03-04T17:51:11.326Z,7.40
2018-03-04T17:53:40.136Z,7.40
2018-03-04T17:56:07.797Z,7.40
2018-03-04T17:58:36.054Z,7.40
2018-03-04T18:01:03.677Z,7.30
2018-03-04T18:03:31.366Z,7.30
2018-03-04T18:05:59.657Z,7.30
2018-03-04T18:08:27.524Z,7.20
2018-03-04T18:10:55.873Z,7.30
2018-03-04T18:13:24.217Z,7.30
2018-03-04T18:15:51.837Z,7.20
2018-03-04T18:18:20.102Z,7.20
2018-03-04T18:20:48.043Z,7.20
2018-03-04T18:23:16.365Z,7.10
2018-03-04T18:25:44.154Z,7.10
2018-03-04T18:28:11.998Z,7.10
2018-03-04T18:30:40.174Z,7.00
2018-03-04T18:33:08.451Z,7.10
2018-03-04T18:35:37.533Z,7.00
2018-03-04T18:38:06.452Z,7.00
2018-03-04T18:40:34.756Z,7.00
2018-03-04T18:43:02.582Z,6.90
2018-03-04T18:45:30.165Z,6.80
2018-03-04T18:47:57.691Z,6.80
2018-03-04T18:50:25.213Z,6.80
2018-03-04T18:52:53.135Z,6.70
2018-03-04T18:55:20.658Z,6.70
2018-03-04T18:57:48.966Z,6.80
2018-03-04T19:00:16.560Z,6.80
2018-03-04T19:02:44.143Z,6.90
2018-03-04T19:05:12.670Z,7.00
2018-03-04T19:07:41.034Z,7.00
2018-03-04T19:10:09.441Z,7.00
2018-03-04T19:12:37.311Z,7.00
2018-03-04T19:15:05.984Z,7.00
2018-03-04T19:17:33.618Z,6.90
2018-03-04T19:20:01.921Z,6.70
2018-03-04T19:22:29.614Z,6.70
2018-03-04T19:24:58.271Z,6.60
2018-03-04T19:27:26.056Z,6.50
2018-03-04T19:29:53.634Z,6.50
2018-03-04T19:32:21.674Z,6.50
2018-03-04T19:34:49.248Z,6.50
2018-03-04T19:37:16.823Z,6.50
2018-03-04T19:39:44.338Z,6.50
2018-03-04T19:42:11.979Z,6.60
2018-03-04T19:44:39.758Z,6.60
2018-03-04T19:47:08.473Z,6.60
2018-03-04T19:49:36.334Z,6.70
2018-03-04T19:52:04.406Z,6.90
2018-03-04T19:54:32.856Z,6.70
2018-03-04T19:57:01.318Z,6.70
2018-03-04T19:59:29.948Z,6.90
2018-03-04T20:01:57.590Z,6.90
2018-03-04T20:04:25.870Z,7.30
2018-03-04T20:06:53.411Z,7.30
2018-03-04T20:09:21.691Z,7.60
2018-03-04T20:11:50.015Z,7.70
2018-03-04T20:14:17.548Z,7.70
2018-03-04T20:16:45.182Z,7.70
2018-03-04T20:19:13.497Z,7.60
2018-03-04T20:21:41.418Z,7.60
2018-03-04T20:24:09.929Z,7.60
2018-03-04T20:26:38.564Z,7.60
2018-03-04T20:29:07.578Z,7.70
2018-03-04T20:31:35.604Z,7.70
2018-03-04T20:34:03.401Z,7.80
2018-03-04T20:36:31.138Z,7.80
2018-03-04T20:38:58.794Z,7.90
2018-03-04T20:41:26.344Z,7.90
2018-03-04T20:43:53.888Z,7.90
2018-03-04T20:46:22.190Z,8.00
2018-03-04T20:48:49.730Z,8.00
2018-03-04T20:51:17.436Z,7.90
2018-03-04T20:53:45.502Z,7.90
2018-03-04T20:56:13.475Z,8.00
2018-03-04T20:58:41.141Z,8.00
2018-03-04T21:01:08.761Z,8.00
2018-03-04T21:03:36.543Z,8.00
2018-03-04T21:06:05.338Z,8.00
2018-03-04T21:08:32.877Z,8.00
2018-03-04T21:11:01.158Z,8.10
2018-03-04T21:13:28.735Z,8.10
2018-03-04T21:15:56.245Z,8.10
2018-03-04T21:18:24.534Z,8.00
2018-03-04T21:20:52.842Z,8.10
2018-03-04T21:23:20.374Z,8.00
2018-03-04T21:25:47.909Z,8.00
2018-03-04T21:28:15.850Z,7.90
2018-03-04T21:30:43.817Z,7.90
2018-03-04T21:33:11.405Z,7.90
2018-03-04T21:35:40.152Z,7.80
2018-03-04T21:38:08.446Z,7.80
2018-03-04T21:40:36.825Z,7.70
2018-03-04T21:43:04.985Z,7.70
2018-03-04T21:45:33.986Z,7.60
2018-03-04T21:48:02.442Z,7.60
2018-03-04T21:50:29.989Z,7.60
2018-03-04T21:52:57.509Z,7.60
2018-03-04T21:55:25.140Z,7.60
2018-03-04T21:57:52.679Z,7.40
2018-03-04T22:00:20.227Z,7.50
2018-03-04T22:02:48.519Z,7.40
2018-03-04T22:05:16.197Z,7.40
2018-03-04T22:07:44.034Z,7.40
2018-03-04T22:10:12.036Z,7.30
2018-03-04T22:12:40.173Z,7.30
2018-03-04T22:15:08.403Z,7.30
2018-03-04T22:17:37.396Z,7.30
2018-03-04T22:20:06.168Z,7.20
2018-03-04T22:22:35.161Z,7.10
2018-03-04T22:25:03.850Z,7.10
2018-03-04T22:27:31.406Z,7.10
2018-03-04T22:29:58.931Z,7.10
2018-03-04T22:32:27.209Z,7.00
2018-03-04T22:34:55.536Z,7.00
2018-03-04T22:37:23.054Z,6.90
2018-03-04T22:39:51.341Z,6.80
2018-03-04T22:42:18.894Z,6.80
2018-03-04T22:44:46.654Z,6.80
2018-03-04T22:47:15.881Z,6.50
2018-03-04T22:49:44.542Z,6.50
2018-03-04T22:52:12.129Z,6.50
2018-03-04T22:54:39.888Z,6.60
2018-03-04T22:57:07.984Z,6.70
2018-03-04T22:59:36.687Z,6.70
2018-03-04T23:02:05.034Z,6.80
2018-03-04T23:04:34.845Z,6.80
2018-03-04T23:07:02.413Z,6.80
2018-03-04T23:09:29.964Z,6.80
2018-03-04T23:11:57.509Z,6.80
2018-03-04T23:14:25.047Z,6.80
2018-03-04T23:16:53.335Z,6.80
2018-03-04T23:19:21.650Z,6.90
2018-03-04T23:21:49.191Z,6.90
2018-03-04T23:24:16.913Z,6.90
2018-03-04T23:26:44.908Z,6.90
2018-03-04T23:29:12.918Z,6.90
2018-03-04T23:31:41.613Z,7.00
2018-03-04T23:34:10.380Z,6.90
2018-03-04T23:36:38.404Z,6.90
2018-03-04T23:39:07.202Z,6.90
2018-03-04T23:41:35.292Z,6.90
2018-03-04T23:44:02.818Z,7.00
2018-03-04T23:46:30.340Z,7.00
2018-03-04T23:48:57.890Z,7.00
2018-03-04T23:51:25.420Z,7.00
2018-03-04T23:53:53.704Z,7.00
2018-03-04T23:56:21.236Z,7.00
2018-03-04T23:58:48.752Z,7.00
